createdAt,value
2023-05-09T00:01:36.518Z,31.65
2023-05-09T00:04:03.366Z,33.30
2023-05-09T00:06:30.091Z,30.67
2023-05-09T00:08:56.817Z,34.78
2023-05-09T00:11:23.652Z,29.67
2023-05-09T00:13:51.066Z,29.25
2023-05-09T00:16:18.738Z,34.28
2023-05-09T00:18:45.490Z,33.80
2023-05-09T00:21:12.185Z,32.70
2023-05-09T00:23:38.928Z,30.23
2023-05-09T00:26:08.034Z,28.60
2023-05-09T00:28:34.981Z,33.60
2023-05-09T00:31:01.791Z,29.23
2023-05-09T00:33:28.569Z,29.02
2023-05-09T00:35:55.323Z,30.77
2023-05-09T00:38:23.837Z,30.77
2023-05-09T00:40:50.613Z,33.83
2023-05-09T00:43:21.719Z,29.95
2023-05-09T00:45:51.357Z,27.80
2023-05-09T00:48:18.134Z,26.80
2023-05-09T00:50:45.021Z,33.38
2023-05-09T00:53:13.779Z,32.63
2023-05-09T00:55:40.753Z,35.42
2023-05-09T00:58:10.283Z,32.58
2023-05-09T01:00:37.170Z,34.50
2023-05-09T01:03:05.149Z,34.67
2023-05-09T01:05:43.924Z,37.00
2023-05-09T01:08:29.117Z,30.10
2023-05-09T01:11:04.294Z,33.90
2023-05-09T01:13:36.855Z,34.17
2023-05-09T01:16:09.390Z,47.97
2023-05-09T01:18:57.895Z,35.20
2023-05-09T01:21:29.469Z,35.30
2023-05-09T01:24:28.995Z,31.83
2023-05-09T01:27:19.769Z,36.33
2023-05-09T01:29:51.678Z,34.80
2023-05-09T01:32:22.968Z,34.95
2023-05-09T01:34:56.060Z,32.95
2023-05-09T01:37:30.689Z,31.60
2023-05-09T01:40:04.053Z,35.30
2023-05-09T01:42:45.624Z,37.47
2023-05-09T01:45:14.606Z,35.28
2023-05-09T01:47:42.706Z,35.88
2023-05-09T01:50:12.210Z,33.55
2023-05-09T01:52:41.254Z,43.93
2023-05-09T01:55:09.589Z,34.38
2023-05-09T01:57:37.569Z,35.45
2023-05-09T02:00:08.026Z,39.42
2023-05-09T02:02:36.066Z,33.75
2023-05-09T02:05:05.558Z,36.13
2023-05-09T02:07:33.524Z,40.95
2023-05-09T02:10:02.395Z,34.40
2023-05-09T02:12:30.768Z,36.95
2023-05-09T02:14:57.587Z,35.80
2023-05-09T02:17:26.994Z,35.90
2023-05-09T02:19:53.762Z,38.35
2023-05-09T02:22:20.681Z,34.10
2023-05-09T02:24:47.524Z,33.40
2023-05-09T02:27:15.679Z,31.98
2023-05-09T02:29:47.599Z,33.50
2023-05-09T02:32:17.267Z,31.70
2023-05-09T02:34:45.500Z,31.48
2023-05-09T02:37:13.384Z,29.15
2023-05-09T02:39:40.702Z,29.88
2023-05-09T02:42:10.211Z,32.30
2023-05-09T02:44:39.658Z,30.25
2023-05-09T02:47:07.529Z,31.13
2023-05-09T02:49:34.851Z,30.40
2023-05-09T02:52:01.637Z,28.27
2023-05-09T02:54:28.384Z,31.93
2023-05-09T02:56:55.148Z,32.60
2023-05-09T02:59:21.946Z,32.58
2023-05-09T03:01:48.783Z,29.40
2023-05-09T03:04:16.589Z,31.92
2023-05-09T03:06:43.338Z,27.47
2023-05-09T03:09:10.174Z,27.85
2023-05-09T03:11:37.127Z,5.07
2023-05-09T03:14:04.774Z,9.93
2023-05-09T03:16:31.682Z,8.63
2023-05-09T03:18:58.495Z,11.20
2023-05-09T03:21:25.300Z,8.68
2023-05-09T03:23:52.339Z,1.52
2023-05-09T03:26:19.004Z,1.73
2023-05-09T03:28:46.528Z,1.73
2023-05-09T03:31:13.244Z,1.47
2023-05-09T03:33:42.758Z,2.30
2023-05-09T03:36:09.652Z,2.05
2023-05-09T03:38:36.410Z,0.98
2023-05-09T03:41:06.894Z,0.82
2023-05-09T03:43:33.625Z,2.70
2023-05-09T03:46:00.417Z,0.80
2023-05-09T03:48:27.337Z,1.00
2023-05-09T03:50:54.060Z,1.10
2023-05-09T03:53:20.772Z,1.58
2023-05-09T03:55:47.741Z,0.80
2023-05-09T03:58:14.969Z,1.60
2023-05-09T04:00:42.104Z,0.93
2023-05-09T04:03:09.394Z,0.68
2023-05-09T04:05:36.469Z,0.75
2023-05-09T04:08:04.212Z,0.77
2023-05-09T04:10:32.241Z,0.80
2023-05-09T04:12:59.045Z,1.25
2023-05-09T04:15:25.852Z,0.88
2023-05-09T04:17:52.597Z,1.10
2023-05-09T04:20:19.353Z,1.00
2023-05-09T04:22:46.987Z,0.70
2023-05-09T04:25:14.871Z,1.10
2023-05-09T04:27:41.815Z,2.88
2023-05-09T04:30:09.498Z,1.17
2023-05-09T04:32:36.921Z,2.23
2023-05-09T04:35:06.430Z,2.15
2023-05-09T04:37:33.267Z,1.23
2023-05-09T04:40:00.009Z,1.48
2023-05-09T04:42:26.796Z,0.98
2023-05-09T04:44:53.628Z,0.73
2023-05-09T04:47:20.342Z,0.90
2023-05-09T04:49:47.022Z,1.20
2023-05-09T04:52:13.810Z,0.98
2023-05-09T04:54:41.127Z,0.90
2023-05-09T04:57:17.336Z,1.23
2023-05-09T04:59:45.077Z,1.30
2023-05-09T05:02:12.955Z,1.52
2023-05-09T05:04:42.799Z,1.05
2023-05-09T05:07:11.674Z,1.52
2023-05-09T05:09:38.403Z,1.43
2023-05-09T05:12:09.309Z,1.20
2023-05-09T05:14:44.084Z,2.05
2023-05-09T05:17:11.017Z,2.95
2023-05-09T05:19:39.712Z,1.23
2023-05-09T05:22:06.382Z,2.80
2023-05-09T05:24:33.095Z,2.22
2023-05-09T05:26:59.750Z,1.75
2023-05-09T05:29:26.433Z,3.88
2023-05-09T05:31:53.219Z,1.45
2023-05-09T05:34:20.033Z,1.00
2023-05-09T05:36:47.767Z,1.77
2023-05-09T05:39:14.514Z,0.95
2023-05-09T05:41:41.183Z,0.90
2023-05-09T05:44:09.767Z,0.95
2023-05-09T05:46:36.432Z,1.90
2023-05-09T05:49:03.133Z,1.83
2023-05-09T05:51:29.839Z,1.30
2023-05-09T05:53:59.003Z,1.80
2023-05-09T05:56:28.762Z,1.35
2023-05-09T05:58:55.534Z,1.47
2023-05-09T06:01:24.866Z,0.70
2023-05-09T06:03:56.131Z,2.65
2023-05-09T06:06:23.571Z,1.45
2023-05-09T06:08:50.576Z,1.15
2023-05-09T06:11:17.879Z,1.43
2023-05-09T06:13:44.787Z,1.23
2023-05-09T06:16:19.419Z,1.92
2023-05-09T06:18:47.476Z,1.25
2023-05-09T06:21:16.602Z,1.10
2023-05-09T06:24:01.316Z,3.00
2023-05-09T06:26:30.333Z,2.95
2023-05-09T06:28:57.094Z,3.88
2023-05-09T06:31:26.953Z,2.47
2023-05-09T06:33:54.218Z,1.38
2023-05-09T06:36:21.179Z,1.57
2023-05-09T06:38:47.892Z,4.57
2023-05-09T06:41:14.623Z,0.93
2023-05-09T06:43:41.349Z,1.08
2023-05-09T06:46:08.208Z,1.23
2023-05-09T06:48:34.948Z,1.10
2023-05-09T06:51:01.700Z,2.22
2023-05-09T06:53:28.403Z,1.45
2023-05-09T06:55:55.269Z,1.15
2023-05-09T06:58:22.136Z,2.20
2023-05-09T07:00:49.173Z,1.10
2023-05-09T07:03:18.136Z,5.63
2023-05-09T07:05:44.960Z,1.40
2023-05-09T07:08:11.701Z,1.02
2023-05-09T07:10:38.915Z,1.00
2023-05-09T07:13:07.259Z,1.63
2023-05-09T07:15:41.937Z,1.20
2023-05-09T07:18:09.680Z,1.27
2023-05-09T07:20:36.629Z,1.30
2023-05-09T07:23:04.212Z,0.80
2023-05-09T07:25:34.003Z,1.93
2023-05-09T07:28:01.116Z,0.90
2023-05-09T07:30:27.956Z,1.10
2023-05-09T07:32:54.671Z,1.70
2023-05-09T07:35:21.641Z,1.17
2023-05-09T07:37:48.442Z,0.90
2023-05-09T07:40:15.619Z,3.28
2023-05-09T07:42:49.612Z,1.00
2023-05-09T07:45:18.863Z,0.90
2023-05-09T07:47:49.288Z,0.90
2023-05-09T07:50:17.118Z,2.77
2023-05-09T07:52:45.274Z,2.15
2023-05-09T07:55:12.605Z,0.98
2023-05-09T07:57:40.109Z,0.90
2023-05-09T08:00:08.825Z,1.35
2023-05-09T08:02:35.760Z,1.20
2023-05-09T08:05:03.760Z,1.42
2023-05-09T08:07:30.481Z,1.63
2023-05-09T08:09:57.181Z,1.60
2023-05-09T08:12:26.264Z,1.38
2023-05-09T08:14:55.192Z,1.10
2023-05-09T08:17:22.018Z,1.17
2023-05-09T08:19:48.728Z,2.13
2023-05-09T08:22:19.912Z,1.25
2023-05-09T08:24:47.200Z,1.60
2023-05-09T08:27:15.021Z,1.03
2023-05-09T08:29:42.316Z,1.45
2023-05-09T08:32:09.626Z,2.28
2023-05-09T08:34:36.535Z,2.55
2023-05-09T08:37:04.571Z,1.55
2023-05-09T08:39:31.801Z,2.20
2023-05-09T08:42:00.175Z,2.75
2023-05-09T08:44:28.967Z,2.17
2023-05-09T08:47:02.435Z,1.58
2023-05-09T08:49:29.555Z,1.88
2023-05-09T08:51:57.050Z,4.30
2023-05-09T08:54:25.475Z,1.95
2023-05-09T08:56:52.518Z,2.30
2023-05-09T08:59:19.795Z,2.30
2023-05-09T09:01:56.414Z,2.30
2023-05-09T09:04:23.367Z,1.50
2023-05-09T09:06:51.864Z,1.92
2023-05-09T09:09:20.349Z,2.67
2023-05-09T09:11:48.056Z,3.38
2023-05-09T09:14:25.621Z,7.50
2023-05-09T09:16:55.843Z,9.50
2023-05-09T09:19:27.523Z,3.85
2023-05-09T09:21:59.179Z,2.33
2023-05-09T09:24:26.147Z,1.65
2023-05-09T09:26:53.094Z,1.83
2023-05-09T09:29:22.993Z,1.83
2023-05-09T09:31:55.750Z,1.85
2023-05-09T09:34:26.214Z,2.15
2023-05-09T09:36:53.596Z,1.48
2023-05-09T09:39:22.141Z,1.40
2023-05-09T09:41:48.984Z,1.30
2023-05-09T09:44:20.672Z,1.70
2023-05-09T09:46:52.115Z,1.45
2023-05-09T09:49:20.753Z,1.42
2023-05-09T09:51:57.812Z,2.10
2023-05-09T09:54:28.052Z,2.40
2023-05-09T09:56:56.595Z,2.05
2023-05-09T09:59:27.496Z,2.15
2023-05-09T10:02:07.043Z,2.35
2023-05-09T10:04:36.561Z,3.20
2023-05-09T10:07:08.479Z,5.23
2023-05-09T10:09:38.052Z,1.98
2023-05-09T10:12:07.103Z,1.40
2023-05-09T10:14:36.155Z,1.98
2023-05-09T10:17:05.561Z,2.40
2023-05-09T10:19:33.077Z,3.27
2023-05-09T10:22:12.046Z,1.60
2023-05-09T10:24:48.549Z,2.17
2023-05-09T10:27:21.779Z,1.75
2023-05-09T10:30:23.344Z,2.85
2023-05-09T10:32:52.605Z,3.70
2023-05-09T10:35:22.915Z,1.27
2023-05-09T10:37:50.354Z,2.10
2023-05-09T10:40:22.104Z,1.42
2023-05-09T10:42:49.220Z,1.23
2023-05-09T10:45:16.168Z,1.25
2023-05-09T10:47:44.570Z,2.03
2023-05-09T10:50:14.769Z,2.80
2023-05-09T10:53:11.176Z,1.50
2023-05-09T10:55:57.481Z,2.00
2023-05-09T10:58:26.322Z,2.13
2023-05-09T11:00:57.282Z,1.60
2023-05-09T11:03:27.138Z,2.13
2023-05-09T11:05:58.283Z,1.77
2023-05-09T11:08:29.748Z,2.23
2023-05-09T11:11:00.613Z,1.52
2023-05-09T11:13:32.425Z,2.90
2023-05-09T11:16:04.943Z,3.28
2023-05-09T11:18:34.347Z,2.97
2023-05-09T11:21:09.593Z,1.30
2023-05-09T11:23:40.016Z,2.35
2023-05-09T11:26:08.683Z,1.40
2023-05-09T11:28:37.712Z,1.52
2023-05-09T11:31:17.762Z,3.97
2023-05-09T11:33:49.253Z,2.20
2023-05-09T11:36:33.505Z,1.65
2023-05-09T11:39:02.231Z,1.48
2023-05-09T11:41:37.182Z,1.48
2023-05-09T11:44:04.037Z,2.35
2023-05-09T11:46:30.850Z,1.10
2023-05-09T11:48:59.184Z,2.17
2023-05-09T11:51:26.135Z,5.43
2023-05-09T11:53:56.358Z,1.50
2023-05-09T11:56:25.262Z,2.10
2023-05-09T11:58:52.463Z,2.97
2023-05-09T12:01:19.850Z,2.67
2023-05-09T12:03:47.041Z,3.70
2023-05-09T12:06:18.345Z,1.90
2023-05-09T12:08:45.692Z,2.20
2023-05-09T12:11:15.550Z,1.83
2023-05-09T12:13:49.602Z,2.30
2023-05-09T12:16:17.405Z,4.53
2023-05-09T12:18:49.419Z,1.95
2023-05-09T12:21:17.471Z,3.78
2023-05-09T12:23:49.943Z,2.00
2023-05-09T12:26:18.377Z,1.80
2023-05-09T12:28:45.426Z,1.98
2023-05-09T12:31:14.635Z,2.65
2023-05-09T12:33:41.615Z,1.98
2023-05-09T12:36:16.141Z,1.90
2023-05-09T12:38:53.325Z,2.50
2023-05-09T12:41:35.023Z,1.73
2023-05-09T12:44:04.122Z,2.58
2023-05-09T12:46:30.973Z,3.13
2023-05-09T12:48:57.822Z,2.17
2023-05-09T12:51:24.651Z,2.03
2023-05-09T12:53:51.426Z,2.10
2023-05-09T12:56:25.385Z,2.70
2023-05-09T12:58:57.126Z,1.60
2023-05-09T13:01:28.779Z,2.27
2023-05-09T13:04:03.842Z,2.40
2023-05-09T13:06:30.927Z,2.28
2023-05-09T13:09:02.938Z,2.08
2023-05-09T13:11:30.256Z,2.67
2023-05-09T13:13:57.585Z,2.83
2023-05-09T13:16:27.094Z,1.80
2023-05-09T13:18:53.881Z,2.75
2023-05-09T13:21:21.132Z,2.22
2023-05-09T13:23:50.183Z,2.83
2023-05-09T13:26:17.090Z,3.97
2023-05-09T13:28:43.885Z,3.92
2023-05-09T13:31:13.573Z,1.92
2023-05-09T13:33:40.670Z,1.88
2023-05-09T13:36:07.571Z,6.10
2023-05-09T13:38:38.693Z,2.23
2023-05-09T13:41:07.611Z,1.88
2023-05-09T13:43:34.899Z,2.72
2023-05-09T13:46:01.922Z,2.10
2023-05-09T13:48:28.924Z,3.42
2023-05-09T13:50:59.358Z,2.53
2023-05-09T13:53:26.068Z,1.48
2023-05-09T13:55:52.808Z,2.17
2023-05-09T13:58:19.678Z,1.20
2023-05-09T14:00:46.480Z,1.65
2023-05-09T14:03:13.150Z,1.87
2023-05-09T14:05:42.387Z,1.45
2023-05-09T14:08:11.264Z,1.67
2023-05-09T14:10:40.667Z,1.73
2023-05-09T14:13:08.511Z,2.00
2023-05-09T14:15:35.596Z,3.07
2023-05-09T14:18:04.661Z,2.13
2023-05-09T14:20:31.569Z,1.77
2023-05-09T14:23:00.693Z,1.40
2023-05-09T14:25:27.519Z,1.40
2023-05-09T14:27:56.655Z,1.80
2023-05-09T14:30:25.728Z,1.83
2023-05-09T14:32:54.947Z,2.42
2023-05-09T14:35:21.697Z,1.30
2023-05-09T14:37:48.444Z,2.45
2023-05-09T14:40:15.564Z,1.07
2023-05-09T14:42:46.153Z,2.17
2023-05-09T14:45:12.990Z,2.83
2023-05-09T14:47:41.240Z,1.40
2023-05-09T14:50:15.573Z,1.52
2023-05-09T14:52:44.193Z,1.37
2023-05-09T14:55:10.972Z,1.40
2023-05-09T14:57:37.701Z,2.03
2023-05-09T15:00:16.648Z,1.48
2023-05-09T15:02:53.986Z,1.63
2023-05-09T15:05:20.898Z,1.73
2023-05-09T15:07:47.646Z,1.02
2023-05-09T15:10:15.039Z,1.90
2023-05-09T15:12:41.927Z,2.47
2023-05-09T15:15:16.998Z,2.78
2023-05-09T15:17:45.097Z,2.87
2023-05-09T15:20:15.927Z,7.03
2023-05-09T15:22:43.336Z,2.00
2023-05-09T15:25:10.758Z,5.40
2023-05-09T15:27:37.946Z,2.95
2023-05-09T15:30:06.742Z,1.50
2023-05-09T15:32:34.727Z,2.70
2023-05-09T15:35:04.547Z,2.42
2023-05-09T15:37:32.377Z,3.50
2023-05-09T15:40:00.183Z,1.92
2023-05-09T15:42:27.380Z,1.93
2023-05-09T15:44:54.161Z,2.03
2023-05-09T15:47:21.033Z,3.70
2023-05-09T15:49:47.878Z,2.13
2023-05-09T15:52:14.624Z,3.33
2023-05-09T15:54:42.916Z,2.10
2023-05-09T15:57:13.396Z,4.25
2023-05-09T15:59:40.396Z,1.88
2023-05-09T16:02:07.516Z,7.10
2023-05-09T16:04:36.840Z,2.42
2023-05-09T16:07:05.864Z,4.87
2023-05-09T16:09:35.483Z,2.28
2023-05-09T16:12:02.217Z,2.97
2023-05-09T16:14:29.006Z,4.70
2023-05-09T16:17:00.157Z,3.10
2023-05-09T16:19:26.813Z,2.20
2023-05-09T16:21:53.643Z,3.05
2023-05-09T16:24:23.287Z,2.70
2023-05-09T16:26:50.054Z,4.72
2023-05-09T16:29:16.799Z,4.03
2023-05-09T16:31:44.995Z,3.50
2023-05-09T16:34:12.109Z,3.47
2023-05-09T16:36:39.538Z,4.70
2023-05-09T16:39:09.242Z,3.42
2023-05-09T16:41:35.926Z,2.03
2023-05-09T16:44:02.895Z,2.03
2023-05-09T16:46:32.478Z,4.03
2023-05-09T16:48:59.175Z,2.03
2023-05-09T16:51:25.902Z,3.00
2023-05-09T16:53:52.725Z,1.95
2023-05-09T16:56:19.432Z,2.20
2023-05-09T16:58:46.134Z,3.33
2023-05-09T17:01:13.335Z,2.20
2023-05-09T17:03:40.084Z,2.22
2023-05-09T17:06:09.836Z,4.03
2023-05-09T17:08:36.933Z,3.43
2023-05-09T17:11:03.654Z,3.47
2023-05-09T17:13:30.503Z,3.38
2023-05-09T17:15:57.578Z,4.05
2023-05-09T17:18:35.788Z,2.83
2023-05-09T17:21:04.442Z,3.13
2023-05-09T17:23:31.748Z,3.15
2023-05-09T17:25:59.973Z,2.80
2023-05-09T17:28:29.008Z,2.42
2023-05-09T17:30:56.065Z,2.70
2023-05-09T17:33:22.836Z,2.13
2023-05-09T17:35:50.162Z,3.03
2023-05-09T17:38:17.442Z,2.78
2023-05-09T17:40:44.940Z,3.53
2023-05-09T17:43:13.379Z,4.53
2023-05-09T17:45:40.222Z,6.13
2023-05-09T17:48:07.306Z,8.80
2023-05-09T17:50:34.077Z,15.55
2023-05-09T17:53:00.811Z,11.57
2023-05-09T17:55:29.770Z,9.38
2023-05-09T17:57:56.509Z,7.53
2023-05-09T18:00:23.262Z,8.80
2023-05-09T18:02:51.101Z,6.05
2023-05-09T18:05:18.404Z,6.43
2023-05-09T18:07:47.542Z,5.85
2023-05-09T18:10:14.413Z,4.73
2023-05-09T18:12:41.809Z,4.30
2023-05-09T18:15:08.988Z,3.92
2023-05-09T18:17:35.746Z,4.45
2023-05-09T18:20:03.305Z,6.20
2023-05-09T18:22:32.809Z,6.87
2023-05-09T18:25:00.716Z,6.38
2023-05-09T18:27:30.560Z,6.30
2023-05-09T18:29:57.302Z,6.28
2023-05-09T18:32:24.155Z,4.72
2023-05-09T18:34:51.175Z,4.87
2023-05-09T18:37:18.740Z,4.90
2023-05-09T18:39:45.531Z,3.00
2023-05-09T18:42:13.346Z,4.20
2023-05-09T18:44:42.237Z,3.33
2023-05-09T18:47:09.170Z,5.20
2023-05-09T18:49:36.262Z,4.07
2023-05-09T18:52:07.678Z,5.97
2023-05-09T18:54:36.530Z,7.88
2023-05-09T18:57:03.501Z,6.57
2023-05-09T18:59:30.511Z,8.73
2023-05-09T19:01:57.352Z,9.77
2023-05-09T19:04:25.374Z,6.63
2023-05-09T19:06:52.122Z,7.45
2023-05-09T19:09:18.972Z,9.60
2023-05-09T19:11:45.796Z,7.50
2023-05-09T19:14:13.745Z,6.57
2023-05-09T19:16:40.611Z,6.65
2023-05-09T19:19:07.676Z,6.68
2023-05-09T19:21:35.671Z,6.90
2023-05-09T19:24:04.771Z,6.17
2023-05-09T19:26:31.578Z,6.78
2023-05-09T19:29:04.157Z,10.13
2023-05-09T19:31:31.380Z,7.30
2023-05-09T19:33:58.238Z,6.10
2023-05-09T19:36:25.056Z,6.73
2023-05-09T19:38:51.858Z,4.72
2023-05-09T19:41:18.641Z,5.20
2023-05-09T19:43:49.296Z,5.03
2023-05-09T19:46:18.116Z,6.25
2023-05-09T19:48:44.914Z,6.47
2023-05-09T19:51:12.513Z,6.38
2023-05-09T19:53:42.991Z,5.47
2023-05-09T19:56:09.965Z,8.52
2023-05-09T19:58:37.390Z,10.32
2023-05-09T20:01:10.424Z,8.03
2023-05-09T20:03:42.265Z,6.43
2023-05-09T20:06:11.990Z,6.82
2023-05-09T20:08:38.831Z,6.90
2023-05-09T20:11:05.625Z,7.18
2023-05-09T20:13:35.151Z,6.80
2023-05-09T20:16:03.380Z,5.55
2023-05-09T20:18:33.383Z,7.72
2023-05-09T20:21:04.155Z,4.13
2023-05-09T20:23:31.228Z,3.80
2023-05-09T20:25:58.227Z,4.37
2023-05-09T20:28:25.815Z,3.20
2023-05-09T20:30:52.590Z,3.08
2023-05-09T20:33:19.445Z,6.82
2023-05-09T20:35:46.220Z,4.57
2023-05-09T20:38:16.015Z,3.17
2023-05-09T20:40:43.609Z,4.68
2023-05-09T20:43:12.954Z,13.02
2023-05-09T20:45:40.840Z,2.90
2023-05-09T20:48:08.066Z,3.28
2023-05-09T20:50:34.869Z,2.20
2023-05-09T20:53:01.635Z,3.13
2023-05-09T20:55:28.412Z,5.88
2023-05-09T20:57:55.153Z,5.78
2023-05-09T21:00:24.865Z,2.72
2023-05-09T21:02:58.595Z,2.70
2023-05-09T21:05:25.786Z,5.30
2023-05-09T21:07:52.557Z,2.47
2023-05-09T21:10:19.405Z,3.03
2023-05-09T21:12:46.178Z,4.03
2023-05-09T21:15:13.838Z,2.23
2023-05-09T21:17:40.736Z,3.88
2023-05-09T21:20:11.095Z,3.30
2023-05-09T21:22:37.966Z,4.07
2023-05-09T21:25:05.002Z,3.75
2023-05-09T21:27:32.269Z,2.47
2023-05-09T21:30:03.139Z,2.90
2023-05-09T21:32:29.951Z,3.47
2023-05-09T21:34:56.756Z,3.30
2023-05-09T21:37:23.441Z,4.20
2023-05-09T21:39:50.184Z,6.03
2023-05-09T21:42:16.892Z,4.03
2023-05-09T21:44:47.901Z,3.58
2023-05-09T21:47:15.895Z,7.40
2023-05-09T21:49:42.652Z,4.13
2023-05-09T21:52:10.461Z,4.43
2023-05-09T21:54:37.203Z,3.53
2023-05-09T21:57:03.909Z,4.32
2023-05-09T21:59:30.743Z,3.78
2023-05-09T22:02:00.276Z,3.90
2023-05-09T22:04:27.037Z,3.27
2023-05-09T22:06:53.713Z,3.40
2023-05-09T22:09:20.985Z,4.70
2023-05-09T22:11:47.696Z,4.18
2023-05-09T22:14:14.396Z,5.45
2023-05-09T22:16:41.324Z,4.70
2023-05-09T22:19:08.124Z,4.53
2023-05-09T22:21:34.924Z,4.85
2023-05-09T22:24:01.681Z,4.63
2023-05-09T22:26:28.413Z,3.50
2023-05-09T22:28:57.473Z,3.97
2023-05-09T22:31:24.209Z,4.72
2023-05-09T22:33:51.016Z,3.55
2023-05-09T22:36:18.089Z,3.40
2023-05-09T22:38:44.823Z,3.60
2023-05-09T22:41:11.868Z,3.37
2023-05-09T22:43:39.611Z,2.97
2023-05-09T22:46:06.849Z,3.30
2023-05-09T22:48:33.710Z,2.35
2023-05-09T22:51:00.438Z,3.28
2023-05-09T22:53:29.573Z,3.33
2023-05-09T22:55:56.321Z,3.92
2023-05-09T22:58:23.035Z,3.60
2023-05-09T23:00:49.978Z,4.43
2023-05-09T23:03:17.468Z,3.42
2023-05-09T23:05:44.292Z,3.70
2023-05-09T23:08:11.091Z,2.72
2023-05-09T23:10:37.819Z,2.50
2023-05-09T23:13:04.895Z,2.88
2023-05-09T23:15:31.828Z,2.55
2023-05-09T23:17:58.788Z,3.00
2023-05-09T23:20:26.635Z,3.20
2023-05-09T23:22:54.351Z,2.78
2023-05-09T23:25:21.126Z,3.10
2023-05-09T23:27:48.282Z,3.08
2023-05-09T23:30:15.483Z,3.80
2023-05-09T23:32:42.559Z,3.97
2023-05-09T23:35:11.605Z,3.33
2023-05-09T23:37:38.336Z,4.97
2023-05-09T23:40:05.502Z,3.70
2023-05-09T23:42:32.203Z,4.37
2023-05-09T23:44:59.917Z,2.95
2023-05-09T23:47:26.892Z,3.63
2023-05-09T23:49:53.637Z,2.97
2023-05-09T23:52:20.386Z,3.58
2023-05-09T23:54:47.084Z,2.80
2023-05-09T23:57:13.770Z,3.88
2023-05-09T23:59:42.262Z,4.25
